メインページ
METAR-TAF:

METAR-TAF

空港 :

アタテュルク国際空港

イスタンブル-アタテュルク, トルコ

緯度: 40-58N, 経度: 028-49E, 海抜: 48m

現時点の気象観測

当レポートは32分前の12:50(UTC)に作成
北東の風 19kt
気温 10°C
湿度 62%
気圧 1024 hPa
視程10km以上
高度3000ftの雲はほとんどない
高度6000ftの千切れ雲あり

METAR: LTBA 061250Z 04019KT 9999 FEW030 BKN060 10/03 Q1024 NOSIG RMK RWY17L 04022G34KT RWY05 05026G37KT RWY23 05023G33KT

時間: 16:22 (13:22 UTC)

予報

当レポートは2時間42分前の10:40(UTC)に作成
予報は06日の 12時(UTC)から 07日の 18時(UTC)まで有効
北東の風 22kt、最大35ktの突風を伴う
視程10km以上
高度2500ftの雲は散在している
高度9000ftの千切れ雲あり
06日の 12時(UTC)から 06日の 16時(UTC)まで一時的に
高度1200ftの雲は散在している
高度3500ftの千切れ雲あり
弱いにわか雨
06日の 18時(UTC)から 06日の 21時(UTC)まで徐々に
視程10km以上
1,500メートル以下は雲なし、積乱雲なし

TAF: LTBA 061040Z 0612/0718 05022G35KT 9999 SCT025 BKN090 TEMPO 0612/0616 -SHRA SCT012 BKN035 BECMG 0618/0621 CAVOK

4,000以上の空港の気象観測と天気予報(METAR報とTAF報)

利用可能な観測所は地図上に黄色い丸と赤い丸で示す。

丸の上にカーソルを重ねると観測所名を参照できる。

次にクリックすると気象観測と天気予報を参照できる。

マップの切り替え:黒色「×」印の緑ボタンをクリックして拡大、「-」印の緑ボタンをクリックして縮小、緑色の三角印をクリックして隣りの地図に切り替え


METAR-TAF: